Bei Facebook empfehlenBei Twitter postenGoogle plusPinterest

Das Wetter im Erzgebirge am 06.04.2016

Wetter und Klima am 06.04.2016 Holzhau im Erzgebirge (630m ü.NN)
Letzte gemessene Temperatur und Uhrzeit der Messung23:45:00 Uhr3.10 °C
Temperatur (Maximum / Höchstwert) und Uhrzeit der Messung15:00:00 Uhr13.90 °C
Temperatur (Minimum / Tiefstwert) und Uhrzeit der Messung21:30:002.90 °C
Errechneter Absolutwert der Temperaturschwankungen zwischen Tmin und Tmax des Tages11.00 K
Errechnete Tagesmitteltemperatur8.62500 °C
Gesamt - Niederschlag des Tages (in flüssiger Form)0.52 Liter / m²
Luftdruck (Maximum / Höchstwert) und Zeitpunkt der Messung11:30:00 Uhr1009.00 hPa
Luftdruck (Minimum / Tiefstwert) und Zeitpunkt der Messung00:30:00 Uhr1005.90 hPa
Errechneter Absolutwert der Luftdruckschwankungen des Tages3.10 hPa
Höchste gemessene Windgeschwindigkeit und Uhrzeit der Messung23:45:00 Uhr0.00 km/h
Errechnete Windhäufigkeit in Relation zu den Messwerten des Tages0.00000 %
Niedrigste Windkühle (Windchill) und Zeitpunkt der Messung21:30:00 Uhr2.90 °C
Taupunkt (Maximum / Höchstwert) und Uhrzeit der Messung09:00:00 Uhr8.20 °C
Taupunkt (Minimum / Tiefstwert) und Uhrzeit der Messung21:15:00-0.70 °C
Anzahl der automatisch eingelesenen Messwerte 96

Detaillierte Wetter- und Klima- Messwerte für den 06.04.2016 in Holzhau im Erzgebirge (630m ü.NN)
ZeitTemperaturLuftdruckRel. LuftfeuchteWindWindrichtungWindchillTaupunktNiederschlag l/m²
23:45:003.10 °C1006.00 hPa84.00 %0.70 °C0.52
23:30:003.20 °C1006.30 hPa83.00 %0.60 °C0.52
23:15:003.40 °C1006.20 hPa83.00 %0.80 °C0.52
23:00:003.60 °C1006.20 hPa82.00 %0.80 °C0.52
22:45:003.90 °C1006.20 hPa82.00 %1.10 °C0.52
22:30:004.10 °C1006.30 hPa82.00 %1.30 °C0.52
22:15:003.90 °C1006.30 hPa82.00 %1.10 °C0.52
22:00:003.50 °C1006.60 hPa81.00 %0.60 °C0.52
21:45:003.20 °C1006.60 hPa80.00 %0.10 °C0.52
21:30:002.90 °C1006.70 hPa79.00 %-0.40 °C0.52
21:15:002.90 °C1006.60 hPa77.00 %-0.70 °C0.52
21:00:003.30 °C1006.60 hPa76.00 %-0.50 °C0.52
20:45:003.50 °C1006.80 hPa75.00 %-0.50 °C0.52
20:30:003.80 °C1006.80 hPa73.00 %-0.60 °C0.52
20:15:004.10 °C1006.90 hPa71.00 %-0.70 °C0.52
20:00:004.80 °C1007.00 hPa69.00 %-0.40 °C0.52
19:45:005.50 °C1006.90 hPa67.00 %-0.10 °C0.52
19:30:006.40 °C1006.80 hPa64.00 %0.10 °C0.52
19:15:007.30 °C1006.80 hPa62.00 %0.50 °C0.52
19:00:008.20 °C1006.70 hPa60.00 %0.90 °C0.52
18:45:009.00 °C1006.60 hPa58.00 %1.20 °C0.52
18:30:009.80 °C1006.60 hPa56.00 %1.50 °C0.52
18:15:0010.50 °C1006.70 hPa55.00 %1.90 °C0.52
18:00:0011.30 °C1006.60 hPa55.00 %2.60 °C0.52
17:45:0011.80 °C1006.70 hPa56.00 %3.30 °C0.52
17:30:0011.50 °C1006.80 hPa55.00 %2.80 °C0.52
17:15:0012.00 °C1006.70 hPa53.00 %2.70 °C0.52
17:00:0012.40 °C1006.80 hPa53.00 %3.10 °C0.52
16:45:0012.50 °C1006.90 hPa53.00 %3.20 °C0.52
16:30:0012.60 °C1007.00 hPa53.00 %3.30 °C0.52
16:15:0013.10 °C1007.00 hPa52.00 %3.50 °C0.52
16:00:0013.10 °C1007.10 hPa53.00 %3.70 °C0.52
15:45:0012.80 °C1007.00 hPa54.00 %3.70 °C0.52
15:30:0012.90 °C1007.10 hPa52.00 %3.30 °C0.52
15:15:0013.50 °C1007.30 hPa51.00 %3.60 °C0.52
15:00:0013.90 °C1007.10 hPa53.00 %4.50 °C0.52
14:45:0012.90 °C1007.10 hPa55.00 %4.10 °C0.52
14:30:0012.80 °C1007.30 hPa54.00 %3.70 °C0.52
14:15:0013.40 °C1007.40 hPa56.00 %4.80 °C0.52
14:00:0012.30 °C1007.60 hPa57.00 %4.00 °C0.52
13:45:0012.40 °C1007.70 hPa56.00 %3.90 °C0.52
13:30:0012.90 °C1007.90 hPa58.00 %4.80 °C0.52
13:15:0012.10 °C1008.10 hPa62.00 %5.00 °C0.52
13:00:0011.80 °C1008.20 hPa59.00 %4.10 °C0.52
12:45:0012.20 °C1008.40 hPa65.00 %5.80 °C0.52
12:30:0011.40 °C1008.50 hPa70.00 %6.10 °C0.52
12:15:0011.20 °C1008.60 hPa72.00 %6.30 °C0.52
12:00:0010.90 °C1008.70 hPa75.00 %6.60 °C0.52
11:45:0010.10 °C1008.80 hPa74.00 %5.70 °C0.52
11:30:009.80 °C1009.00 hPa71.00 %4.80 °C0.52
11:15:0011.60 °C1008.90 hPa67.00 %5.70 °C0.52
11:00:0011.80 °C1008.10 hPa68.00 %6.10 °C0.52
10:45:0011.90 °C1008.40 hPa68.00 %6.20 °C0.52
10:30:0011.60 °C1008.70 hPa68.00 %5.90 °C0.52
10:15:0011.80 °C1008.50 hPa72.00 %6.90 °C0.52
10:00:0011.40 °C1008.60 hPa73.00 %6.70 °C0.52
09:45:0011.50 °C1008.70 hPa78.00 %7.80 °C0.52
09:30:0011.10 °C1008.70 hPa81.00 %8.00 °C0.52
09:15:0010.90 °C1008.70 hPa83.00 %8.10 °C0.52
09:00:0010.40 °C1008.80 hPa86.00 %8.20 °C0.52
08:45:009.30 °C1008.50 hPa88.00 %7.40 °C0.52
08:30:008.70 °C1008.60 hPa90.00 %7.20 °C0.52
08:15:008.30 °C1008.50 hPa91.00 %6.90 °C0.52
08:00:007.10 °C1008.40 hPa92.00 %5.90 °C0.52
07:45:006.90 °C1008.40 hPa92.00 %5.70 °C0.52
07:30:007.10 °C1008.50 hPa92.00 %5.90 °C0.52
07:15:006.90 °C1008.30 hPa92.00 %5.70 °C0.52
07:00:006.70 °C1008.00 hPa92.00 %5.50 °C0.52
06:45:006.40 °C1008.00 hPa92.00 %5.20 °C0.52
06:30:006.10 °C1007.80 hPa92.00 %4.90 °C0.52
06:15:006.20 °C1007.70 hPa92.00 %5.00 °C0.52
06:00:006.30 °C1007.60 hPa92.00 %5.10 °C0.52
05:45:006.50 °C1007.30 hPa92.00 %5.30 °C0.52
05:30:006.70 °C1007.40 hPa92.00 %5.50 °C0.52
05:15:006.70 °C1007.40 hPa92.00 %5.50 °C0.52
05:00:006.80 °C1007.30 hPa92.00 %5.60 °C0.52
04:45:006.80 °C1007.20 hPa92.00 %5.60 °C0.52
04:30:006.80 °C1006.80 hPa92.00 %5.60 °C0.52
04:15:006.90 °C1006.90 hPa92.00 %5.70 °C0.52
04:00:006.90 °C1006.80 hPa92.00 %5.70 °C0.52
03:45:007.00 °C1006.60 hPa92.00 %5.80 °C0.52
03:30:007.10 °C1006.60 hPa92.00 %5.90 °C0.52
03:15:007.20 °C1006.70 hPa92.00 %6.00 °C0.52
03:00:007.30 °C1006.40 hPa92.00 %6.10 °C0.52
02:45:007.50 °C1006.30 hPa91.00 %6.10 °C0.52
02:30:007.80 °C1006.40 hPa91.00 %6.40 °C0.52
02:15:007.90 °C1006.20 hPa91.00 %6.50 °C0.52
02:00:008.10 °C1006.50 hPa91.00 %6.70 °C0.52
01:45:008.10 °C1006.30 hPa91.00 %6.70 °C0.52
01:30:008.30 °C1006.20 hPa91.00 %6.90 °C0.52
01:15:008.40 °C1006.30 hPa90.00 %6.90 °C0.52
01:00:008.60 °C1006.10 hPa90.00 %7.10 °C0.52
00:45:009.00 °C1006.10 hPa89.00 %7.30 °C 
00:30:009.20 °C1005.90 hPa88.00 %7.30 °C 
00:15:009.30 °C1005.90 hPa88.00 %7.40 °C 
00:00:009.60 °C1006.00 hPa87.00 %7.50 °C 

Permanenter Link zu dieser Seite: Wetter im Erzgebirge am 06.04.2016
Performance-Info: Die Erstellung der Seite / Statistik(en) / Tabelle(n) erforderte 5 Datenbankserver-Abfrage(n) und dauerte 118 Millisekunden. (Dieser Messwert ist von der Gesamt-Auslastung des Servers abhängig.)
Erzgebirge - Wetter | Erzgebirge - Wetter (Mobilgeräte) | Komplette Klimadatenbank